Time;durP1;ratioP1;P1;durP2;ratioP2;P2;SDS_P1;SDS_P2;PMS_P1;PMS_P2;Temp;Humidity;BMP_temperature;BMP_pressure;BME280_temperature;BME280_humidity;BME280_pressure;Samples;Min_cycle;Max_cycle;Signal;HPM_P1;HPM_P2
2021/12/19 00:00:16;;;;;;;18.15;11.10;;;7.20;99.90;;;;;;4999872;28;20129;-81
2021/12/19 00:10:44;;;;;;;16.40;10.52;;;7.30;99.90;;;;;;4974369;28;20046;-81
2021/12/19 00:13:13;;;;;;;17.00;10.73;;;7.30;99.90;;;;;;4940009;28;20483;-82
2021/12/19 00:15:39;;;;;;;17.27;10.45;;;7.30;99.90;;;;;;4956722;28;20475;-81
2021/12/19 00:18:04;;;;;;;18.60;10.52;;;7.30;99.90;;;;;;4957187;28;20494;-82
2021/12/19 00:20:30;;;;;;;18.92;10.73;;;7.30;99.90;;;;;;4943867;28;20129;-81
2021/12/19 00:22:56;;;;;;;18.60;10.00;;;7.40;99.90;;;;;;4972994;28;20065;-81
2021/12/19 00:25:21;;;;;;;16.30;10.43;;;7.30;99.90;;;;;;4952466;28;20043;-81
2021/12/19 00:27:47;;;;;;;16.92;10.02;;;7.30;99.90;;;;;;4940387;28;20101;-81
2021/12/19 00:30:13;;;;;;;16.98;9.80;;;7.20;99.90;;;;;;4956670;28;20050;-82
2021/12/19 00:32:40;;;;;;;17.98;10.43;;;7.30;99.90;;;;;;4939251;28;20522;-82
2021/12/19 00:35:06;;;;;;;19.23;10.57;;;7.30;99.90;;;;;;4972518;28;20078;-81
2021/12/19 00:37:32;;;;;;;18.50;10.20;;;7.30;99.90;;;;;;4956623;28;20093;-81
2021/12/19 00:39:58;;;;;;;17.25;9.45;;;7.30;99.90;;;;;;4972632;28;20047;-81
2021/12/19 00:42:29;;;;;;;15.82;9.10;;;7.30;99.90;;;;;;4970367;28;20435;-82
2021/12/19 00:44:57;;;;;;;15.88;8.80;;;7.30;99.90;;;;;;4970618;28;20100;-81
2021/12/19 00:47:23;;;;;;;16.63;8.80;;;7.30;99.90;;;;;;4956990;28;20046;-81
2021/12/19 00:49:49;;;;;;;14.60;8.60;;;7.30;99.90;;;;;;4972511;28;20050;-81
2021/12/19 00:52:15;;;;;;;15.13;8.32;;;7.30;99.90;;;;;;4956535;28;20034;-81
2021/12/19 00:54:40;;;;;;;14.38;8.25;;;7.30;99.90;;;;;;4971217;28;20443;-81
2021/12/19 00:57:06;;;;;;;14.50;8.23;;;7.40;99.90;;;;;;4954874;28;20407;-81
2021/12/19 00:59:32;;;;;;;15.63;8.20;;;7.30;99.90;;;;;;4972852;28;20418;-81
2021/12/19 01:01:57;;;;;;;14.65;8.57;;;7.30;99.90;;;;;;4956171;28;20050;-81
2021/12/19 01:04:25;;;;;;;16.05;9.27;;;7.30;99.90;;;;;;4975049;28;20085;-82
2021/12/19 01:06:50;;;;;;;17.25;9.75;;;7.30;99.90;;;;;;4947940;28;20174;-81
2021/12/19 01:09:17;;;;;;;18.08;9.57;;;7.30;99.90;;;;;;4972436;28;20097;-81
2021/12/19 01:11:47;;;;;;;17.30;9.88;;;7.30;99.90;;;;;;4981517;28;20053;-81
2021/12/19 01:14:13;;;;;;;19.25;10.75;;;7.30;99.90;;;;;;4972681;28;20049;-81
2021/12/19 01:16:39;;;;;;;18.98;10.68;;;7.30;99.90;;;;;;4989101;28;20220;-82
2021/12/19 01:19:05;;;;;;;18.02;10.13;;;7.30;99.90;;;;;;4976382;28;20058;-82
2021/12/19 01:21:31;;;;;;;21.02;10.18;;;7.30;99.90;;;;;;4970798;28;20100;-82
2021/12/19 01:23:57;;;;;;;18.38;10.32;;;7.40;99.90;;;;;;4988374;28;20042;-82
2021/12/19 01:26:23;;;;;;;18.20;10.20;;;7.40;99.90;;;;;;4968988;28;20126;-82
2021/12/19 01:28:48;;;;;;;19.42;10.68;;;7.40;99.90;;;;;;4988833;28;20046;-81
2021/12/19 01:31:14;;;;;;;19.00;10.82;;;7.40;99.90;;;;;;4971052;28;20047;-81
2021/12/19 01:33:40;;;;;;;21.27;11.45;;;7.40;99.90;;;;;;4970530;28;20050;-81
2021/12/19 01:36:06;;;;;;;20.00;11.43;;;7.40;99.90;;;;;;4987627;28;20045;-81
2021/12/19 01:38:32;;;;;;;20.35;12.02;;;7.40;99.90;;;;;;4988989;28;20042;-81
2021/12/19 01:40:58;;;;;;;21.10;12.07;;;7.40;99.90;;;;;;4969710;28;20039;-81
2021/12/19 01:43:27;;;;;;;20.42;11.77;;;7.40;99.90;;;;;;4969606;28;20038;-81
2021/12/19 01:45:54;;;;;;;19.85;11.40;;;7.40;99.90;;;;;;4968513;28;20034;-81
2021/12/19 01:48:21;;;;;;;24.05;12.80;;;7.40;99.90;;;;;;4967650;28;20510;-81
2021/12/19 01:50:47;;;;;;;21.20;11.65;;;7.40;99.90;;;;;;4981313;28;20047;-82
2021/12/19 01:53:16;;;;;;;21.25;11.82;;;7.40;99.90;;;;;;4970130;28;20050;-82
2021/12/19 01:55:43;;;;;;;20.40;10.25;;;7.40;99.90;;;;;;4961938;28;20047;-82
2021/12/19 01:58:09;;;;;;;16.23;9.10;;;7.40;99.90;;;;;;4999876;28;20042;-82
2021/12/19 02:00:40;;;;;;;17.60;8.98;;;7.40;99.90;;;;;;5001987;28;20050;-82
2021/12/19 02:03:07;;;;;;;14.00;7.18;;;7.40;99.90;;;;;;4972483;28;20117;-82
2021/12/19 02:05:33;;;;;;;12.65;6.40;;;7.40;99.90;;;;;;4971981;28;20581;-82
2021/12/19 02:08:01;;;;;;;10.25;5.93;;;7.40;99.90;;;;;;4985583;28;20104;-82
2021/12/19 02:10:29;;;;;;;10.65;6.05;;;7.40;99.90;;;;;;4955410;28;20068;-81
2021/12/19 02:12:56;;;;;;;11.32;6.00;;;7.40;99.90;;;;;;4988009;28;20077;-82
2021/12/19 02:15:24;;;;;;;10.95;5.85;;;7.40;99.90;;;;;;4972574;28;20089;-81
2021/12/19 02:17:52;;;;;;;11.73;6.70;;;7.40;99.90;;;;;;4969977;28;20578;-82
2021/12/19 02:20:20;;;;;;;15.35;7.65;;;7.40;99.90;;;;;;4986068;28;20564;-82
2021/12/19 02:22:46;;;;;;;9.73;5.28;;;7.30;99.90;;;;;;4980309;28;20060;-82
2021/12/19 02:25:14;;;;;;;9.77;5.03;;;7.40;99.90;;;;;;4977725;28;20042;-82
2021/12/19 02:27:40;;;;;;;7.57;3.55;;;7.40;99.90;;;;;;4962836;28;20057;-81
2021/12/19 02:30:08;;;;;;;7.25;3.63;;;7.30;99.90;;;;;;4950552;28;20046;-81
2021/12/19 02:32:36;;;;;;;6.63;3.33;;;7.30;99.90;;;;;;4966563;28;20050;-81
2021/12/19 02:35:09;;;;;;;6.03;2.70;;;7.30;99.90;;;;;;4962492;28;20043;-81
2021/12/19 02:48:26;;;;;;;6.63;3.10;;;7.30;99.90;;;;;;4985667;28;20043;-82
2021/12/19 02:50:54;;;;;;;7.57;3.05;;;7.30;99.90;;;;;;4966994;28;20047;-82
2021/12/19 02:53:32;;;;;;;5.57;2.63;;;7.30;99.90;;;;;;4981130;28;20050;-82
2021/12/19 02:56:03;;;;;;;6.22;2.28;;;7.30;99.90;;;;;;4957640;28;20058;-82
2021/12/19 02:58:30;;;;;;;6.53;2.65;;;7.30;99.90;;;;;;4968264;28;20122;-82
2021/12/19 03:00:57;;;;;;;6.80;2.60;;;7.20;99.90;;;;;;4985289;28;20049;-82
2021/12/19 03:03:23;;;;;;;8.45;2.60;;;7.30;99.90;;;;;;4981646;28;20050;-82
2021/12/19 03:05:49;;;;;;;7.78;2.50;;;7.20;99.90;;;;;;4978334;28;20047;-82
2021/12/19 03:08:15;;;;;;;6.78;2.30;;;7.20;99.90;;;;;;4992306;28;20042;-82
2021/12/19 03:18:40;;;;;;;6.50;2.63;;;7.20;99.90;;;;;;4993992;28;20418;-82
2021/12/19 03:21:11;;;;;;;5.30;2.63;;;7.30;99.90;;;;;;4993420;28;20042;-82
2021/12/19 03:23:37;;;;;;;6.40;2.58;;;7.20;99.90;;;;;;4973925;28;20494;-82
2021/12/19 03:26:02;;;;;;;5.10;2.33;;;7.20;99.90;;;;;;4972044;28;20046;-82
2021/12/19 03:28:28;;;;;;;6.30;2.35;;;7.20;99.90;;;;;;4977044;28;20038;-81
2021/12/19 03:30:54;;;;;;;7.45;2.50;;;7.20;99.90;;;;;;4978538;28;20505;-82
2021/12/19 03:33:20;;;;;;;5.50;2.50;;;7.20;99.90;;;;;;4993031;28;20125;-81
2021/12/19 03:35:47;;;;;;;8.18;2.60;;;7.20;99.90;;;;;;4991258;28;20575;-81
2021/12/19 03:38:15;;;;;;;5.82;2.88;;;7.10;99.90;;;;;;4960612;28;20125;-82
2021/12/19 03:40:45;;;;;;;6.32;2.88;;;7.20;99.90;;;;;;4974588;28;20046;-81
2021/12/19 03:43:16;;;;;;;7.20;3.17;;;7.20;99.90;;;;;;4993797;28;20398;-81
2021/12/19 03:45:44;;;;;;;6.90;3.17;;;7.10;99.90;;;;;;4980053;28;20051;-81
2021/12/19 03:48:12;;;;;;;6.72;2.80;;;7.20;99.90;;;;;;4991896;28;20046;-82
2021/12/19 03:50:44;;;;;;;7.50;2.95;;;7.20;99.90;;;;;;4992584;28;20042;-82
2021/12/19 03:53:12;;;;;;;7.30;3.10;;;7.20;99.90;;;;;;4992798;28;20506;-82
2021/12/19 03:55:38;;;;;;;5.95;2.83;;;7.20;99.90;;;;;;4992128;28;20129;-82
2021/12/19 03:58:05;;;;;;;7.40;2.95;;;7.10;99.90;;;;;;4992539;28;20072;-82
2021/12/19 04:00:32;;;;;;;6.78;2.97;;;7.10;99.90;;;;;;4977950;28;20042;-81
2021/12/19 04:03:03;;;;;;;6.88;3.05;;;7.10;99.90;;;;;;4992572;28;20371;-81
2021/12/19 04:05:30;;;;;;;5.82;2.75;;;7.20;99.90;;;;;;4984111;28;20055;-82
2021/12/19 04:07:55;;;;;;;7.22;2.78;;;7.10;99.90;;;;;;4971618;28;20073;-82
2021/12/19 04:10:23;;;;;;;7.07;2.63;;;7.10;99.90;;;;;;4983652;28;20485;-81
2021/12/19 04:12:49;;;;;;;7.25;2.90;;;7.10;99.90;;;;;;4977032;28;20050;-81
2021/12/19 04:15:15;;;;;;;6.10;2.50;;;7.10;99.90;;;;;;4994275;28;20105;-82
2021/12/19 04:17:41;;;;;;;6.35;2.10;;;7.10;99.90;;;;;;4961493;28;20077;-82
2021/12/19 04:20:07;;;;;;;4.95;1.80;;;7.10;99.90;;;;;;4963329;28;20049;-82
2021/12/19 04:22:33;;;;;;;4.25;1.40;;;7.00;99.90;;;;;;4970859;28;20042;-82
2021/12/19 04:24:59;;;;;;;4.30;1.70;;;7.00;99.90;;;;;;4972698;28;20062;-82
2021/12/19 04:27:25;;;;;;;4.15;1.38;;;7.00;99.90;;;;;;4948966;28;20079;-82
2021/12/19 04:29:53;;;;;;;3.97;1.40;;;7.00;99.90;;;;;;4962315;28;20034;-82
2021/12/19 04:32:23;;;;;;;3.40;1.30;;;7.00;99.90;;;;;;4962846;28;20485;-82
2021/12/19 04:34:49;;;;;;;3.83;1.17;;;7.00;99.90;;;;;;4953801;28;20084;-82
2021/12/19 04:39:59;;;;;;;3.38;1.20;;;7.00;99.90;;;;;;4951850;28;20133;-82
2021/12/19 05:01:12;;;;;;;4.78;1.52;;;6.80;99.90;;;;;;4960914;28;20054;-82
2021/12/19 05:06:36;;;;;;;4.40;1.50;;;6.80;99.90;;;;;;5002237;28;20120;-81
2021/12/19 05:14:46;;;;;;;4.30;1.43;;;6.80;99.90;;;;;;5005865;28;20085;-82
2021/12/19 05:17:18;;;;;;;4.45;1.35;;;6.80;99.90;;;;;;4972427;28;20285;-82
2021/12/19 05:20:02;;;;;;;;;;;6.80;99.90;;;;;;4972173;28;20042;-82
2021/12/19 05:22:30;;;;;;;5.05;1.70;;;6.80;99.90;;;;;;4986057;28;19968;-82
2021/12/19 05:25:13;;;;;;;5.97;1.75;;;6.80;99.90;;;;;;4967767;28;20129;-82
2021/12/19 05:27:40;;;;;;;7.95;2.85;;;6.80;99.90;;;;;;4981171;28;20042;-82
2021/12/19 05:30:06;;;;;;;9.05;3.85;;;6.80;99.90;;;;;;4979986;28;20042;-81
2021/12/19 05:32:32;;;;;;;10.43;3.33;;;6.80;99.90;;;;;;4986913;28;20042;-82
2021/12/19 05:34:57;;;;;;;10.85;3.95;;;6.90;99.90;;;;;;4984315;28;20385;-82
2021/12/19 05:45:36;;;;;;;12.18;4.95;;;6.90;99.90;;;;;;4977702;28;20490;-82
2021/12/19 05:48:02;;;;;;;12.60;5.00;;;6.90;99.90;;;;;;5000600;28;20165;-81
2021/12/19 05:50:28;;;;;;;14.77;5.20;;;6.90;99.90;;;;;;5000858;28;20065;-82
2021/12/19 05:52:53;;;;;;;11.65;5.28;;;6.90;99.90;;;;;;4988848;28;20071;-81
2021/12/19 05:55:20;;;;;;;12.50;5.40;;;6.90;99.90;;;;;;5001215;28;20065;-82
2021/12/19 05:57:46;;;;;;;17.33;6.05;;;6.90;99.90;;;;;;4973266;28;20048;-82
2021/12/19 06:00:16;;;;;;;18.05;6.40;;;6.90;99.90;;;;;;4991579;28;20042;-82
2021/12/19 06:02:42;;;;;;;13.60;5.88;;;6.90;99.90;;;;;;4988421;28;20034;-82
2021/12/19 06:05:12;;;;;;;16.42;7.05;;;6.90;99.90;;;;;;4986072;28;20057;-81
2021/12/19 06:07:39;;;;;;;17.27;7.22;;;6.90;99.90;;;;;;4988016;28;20461;-82
2021/12/19 06:10:06;;;;;;;16.80;6.82;;;6.90;99.90;;;;;;4987711;28;20068;-82
2021/12/19 06:12:32;;;;;;;20.02;7.80;;;6.90;99.90;;;;;;4992404;28;20582;-82
2021/12/19 06:14:58;;;;;;;18.08;6.97;;;6.90;99.90;;;;;;4986280;28;20033;-82
2021/12/19 06:17:24;;;;;;;18.42;7.25;;;6.90;99.90;;;;;;4985519;28;20049;-82
2021/12/19 06:19:50;;;;;;;20.95;7.18;;;6.90;99.90;;;;;;4973419;28;20120;-82
2021/12/19 06:22:16;;;;;;;18.25;7.50;;;7.00;99.90;;;;;;5004161;28;20124;-82
2021/12/19 06:24:41;;;;;;;22.85;8.27;;;6.90;99.90;;;;;;4973437;28;20046;-81
2021/12/19 06:27:07;;;;;;;17.08;8.57;;;7.00;99.90;;;;;;5008887;28;20049;-82
2021/12/19 06:29:33;;;;;;;24.08;8.63;;;7.00;99.90;;;;;;4985621;28;20056;-82
2021/12/19 06:31:59;;;;;;;23.13;8.98;;;7.00;99.90;;;;;;5003541;28;20049;-82
2021/12/19 06:34:25;;;;;;;22.92;9.10;;;7.00;99.90;;;;;;5001735;28;20038;-81
2021/12/19 06:36:52;;;;;;;19.92;9.95;;;7.00;99.90;;;;;;4987198;28;20409;-82
2021/12/19 06:39:22;;;;;;;22.48;9.75;;;7.00;99.90;;;;;;5003338;28;20038;-82
2021/12/19 06:41:48;;;;;;;20.85;9.27;;;7.00;99.90;;;;;;4979256;28;20085;-81
2021/12/19 06:44:14;;;;;;;20.25;9.38;;;7.00;99.90;;;;;;4987788;28;20037;-82
2021/12/19 06:46:40;;;;;;;22.80;9.52;;;7.00;99.90;;;;;;5017115;28;20038;-82
2021/12/19 06:49:06;;;;;;;18.23;8.68;;;7.10;99.90;;;;;;5015960;28;20065;-82
2021/12/19 06:51:33;;;;;;;20.42;9.18;;;7.10;99.90;;;;;;5002355;28;20116;-82
2021/12/19 06:53:59;;;;;;;25.80;10.18;;;7.10;99.90;;;;;;4986377;28;20402;-82
2021/12/19 06:56:25;;;;;;;28.88;11.82;;;7.10;99.90;;;;;;4984982;28;20444;-81
2021/12/19 06:58:51;;;;;;;33.50;12.82;;;7.10;99.90;;;;;;5032490;28;20037;-81
2021/12/19 07:01:17;;;;;;;27.23;12.93;;;7.00;99.90;;;;;;4992726;28;20096;-81
2021/12/19 07:03:43;;;;;;;25.25;10.80;;;7.10;99.90;;;;;;4988922;28;20045;-82
2021/12/19 07:06:09;;;;;;;23.65;11.30;;;7.10;99.90;;;;;;4985434;28;20045;-82
2021/12/19 07:08:34;;;;;;;25.83;10.55;;;7.10;99.90;;;;;;4972410;28;20088;-82
2021/12/19 07:11:00;;;;;;;22.23;9.73;;;7.10;99.90;;;;;;4970178;28;20061;-82
2021/12/19 07:13:26;;;;;;;25.17;9.07;;;7.10;99.90;;;;;;4988850;28;20049;-82
2021/12/19 07:15:54;;;;;;;18.17;7.63;;;7.10;99.90;;;;;;4987904;28;20041;-82
2021/12/19 07:18:20;;;;;;;18.92;8.48;;;7.10;99.90;;;;;;5005159;28;20179;-81
2021/12/19 07:20:46;;;;;;;22.23;9.00;;;7.10;99.90;;;;;;4983821;28;20088;-82
2021/12/19 07:23:17;;;;;;;21.95;9.15;;;7.10;99.90;;;;;;4960586;28;20128;-82
2021/12/19 07:25:43;;;;;;;26.95;9.20;;;7.10;99.90;;;;;;4976967;28;20509;-81
2021/12/19 07:28:10;;;;;;;24.02;9.30;;;7.10;99.90;;;;;;5020245;28;20161;-82
2021/12/19 07:30:37;;;;;;;24.60;9.63;;;7.10;99.90;;;;;;4988982;28;20041;-82
2021/12/19 07:33:08;;;;;;;25.75;9.27;;;7.10;99.90;;;;;;4996414;28;20052;-82
2021/12/19 07:35:37;;;;;;;25.23;8.50;;;7.10;99.90;;;;;;4983620;28;20088;-82
2021/12/19 07:38:05;;;;;;;19.90;8.32;;;7.10;99.90;;;;;;4997376;28;20861;-82
2021/12/19 07:40:39;;;;;;;22.10;8.32;;;7.10;99.90;;;;;;4981152;28;20482;-82
2021/12/19 07:43:08;;;;;;;21.15;7.68;;;7.10;99.90;;;;;;4985764;28;20048;-82
2021/12/19 07:45:34;;;;;;;18.15;7.15;;;7.10;99.90;;;;;;4998909;28;20038;-82
2021/12/19 07:48:00;;;;;;;18.67;7.25;;;7.10;99.90;;;;;;4995500;28;20069;-82
2021/12/19 07:50:27;;;;;;;18.88;7.03;;;7.10;99.90;;;;;;5006713;28;20042;-82
2021/12/19 07:52:54;;;;;;;18.58;7.00;;;7.10;99.90;;;;;;4995513;28;20069;-81
2021/12/19 07:55:21;;;;;;;17.20;6.40;;;7.10;99.90;;;;;;4991604;28;20056;-81
2021/12/19 07:57:47;;;;;;;19.60;6.38;;;7.10;99.90;;;;;;4977881;28;20053;-82
2021/12/19 08:00:14;;;;;;;14.88;5.47;;;7.10;99.90;;;;;;4997419;28;20041;-82
2021/12/19 08:02:40;;;;;;;20.65;6.50;;;7.10;99.90;;;;;;4983918;28;20065;-82
2021/12/19 08:05:07;;;;;;;14.95;5.75;;;7.10;99.90;;;;;;5003340;28;20109;-82
2021/12/19 08:07:33;;;;;;;17.58;5.47;;;7.10;99.90;;;;;;5002093;28;20122;-82
2021/12/19 08:12:26;;;;;;;19.63;5.90;;;7.10;99.90;;;;;;5004595;28;20042;-82
2021/12/19 08:14:51;;;;;;;17.13;6.10;;;7.10;99.90;;;;;;5002777;28;20108;-82
2021/12/19 08:17:17;;;;;;;18.95;6.88;;;7.00;99.90;;;;;;4982791;28;20037;-82
2021/12/19 08:19:44;;;;;;;21.60;7.03;;;7.10;99.90;;;;;;5020151;28;20095;-82
2021/12/19 08:22:10;;;;;;;21.33;7.20;;;7.00;99.90;;;;;;4983756;28;20084;-82
2021/12/19 08:24:36;;;;;;;24.00;7.38;;;7.10;99.90;;;;;;4965066;28;20034;-82
2021/12/19 08:27:03;;;;;;;19.40;6.97;;;7.10;99.90;;;;;;4986454;28;20498;-82
2021/12/19 08:29:29;;;;;;;18.20;6.47;;;7.10;99.90;;;;;;4980151;28;20038;-83
2021/12/19 08:31:54;;;;;;;14.00;6.45;;;7.10;99.90;;;;;;4978708;28;20401;-82
2021/12/19 08:34:20;;;;;;;19.00;6.35;;;7.10;99.90;;;;;;4985245;28;20069;-83
2021/12/19 08:36:46;;;;;;;18.08;6.32;;;7.10;99.90;;;;;;4981119;28;20050;-82
2021/12/19 08:39:12;;;;;;;20.00;5.97;;;7.10;99.90;;;;;;4984173;28;20046;-82
2021/12/19 08:41:39;;;;;;;16.52;6.30;;;7.10;99.90;;;;;;4982586;28;20409;-82
2021/12/19 08:44:05;;;;;;;22.35;6.30;;;7.10;99.90;;;;;;4984115;28;20037;-82
2021/12/19 08:46:35;;;;;;;20.30;6.18;;;7.10;99.90;;;;;;4962626;28;20045;-82
2021/12/19 08:49:02;;;;;;;16.73;5.72;;;7.10;99.90;;;;;;4984864;28;20041;-82
2021/12/19 08:51:28;;;;;;;19.15;5.78;;;7.20;99.90;;;;;;5003149;28;20052;-82
2021/12/19 08:53:54;;;;;;;16.10;5.80;;;7.20;99.90;;;;;;4998135;28;20046;-81
2021/12/19 08:56:20;;;;;;;17.33;5.40;;;7.20;99.90;;;;;;4989180;28;20466;-82
2021/12/19 08:58:45;;;;;;;16.48;5.10;;;7.20;99.90;;;;;;4985905;28;20435;-83
2021/12/19 09:01:11;;;;;;;19.15;5.25;;;7.20;99.90;;;;;;4989716;28;20041;-82
2021/12/19 09:03:37;;;;;;;18.23;5.22;;;7.20;99.90;;;;;;4998831;28;20042;-82
2021/12/19 09:06:03;;;;;;;14.85;5.05;;;7.20;99.90;;;;;;4980185;28;20574;-82
2021/12/19 09:08:30;;;;;;;16.63;5.20;;;7.20;99.90;;;;;;5004208;28;20525;-82
2021/12/19 09:10:57;;;;;;;15.50;4.63;;;7.20;99.90;;;;;;5001101;28;20046;-82
2021/12/19 09:13:23;;;;;;;17.60;5.28;;;7.20;99.90;;;;;;4985879;28;20073;-82
2021/12/19 09:15:50;;;;;;;17.00;5.10;;;7.20;99.90;;;;;;4991603;28;20502;-82
2021/12/19 09:18:17;;;;;;;18.85;5.47;;;7.20;99.90;;;;;;4987427;28;20132;-81
2021/12/19 09:20:43;;;;;;;18.80;5.65;;;7.30;99.90;;;;;;4985239;28;20512;-82
2021/12/19 09:23:09;;;;;;;19.35;5.43;;;7.30;99.90;;;;;;4984179;28;20116;-82
2021/12/19 09:25:36;;;;;;;18.08;5.57;;;7.30;99.90;;;;;;4965127;28;20038;-82
2021/12/19 09:28:02;;;;;;;17.55;5.53;;;7.30;99.90;;;;;;4998200;28;20034;-82
2021/12/19 09:30:28;;;;;;;17.05;5.47;;;7.30;99.90;;;;;;5005639;28;20042;-82
2021/12/19 09:32:54;;;;;;;20.17;6.00;;;7.30;99.90;;;;;;4990651;28;20405;-82
2021/12/19 09:35:20;;;;;;;17.85;5.80;;;7.30;99.90;;;;;;5004105;28;20053;-82
2021/12/19 09:37:45;;;;;;;19.15;5.68;;;7.30;99.90;;;;;;5003462;28;20409;-82
2021/12/19 09:40:17;;;;;;;18.75;5.93;;;7.30;99.90;;;;;;4985262;28;20045;-82
2021/12/19 09:42:48;;;;;;;18.95;5.68;;;7.30;99.90;;;;;;4983626;28;20042;-82
2021/12/19 09:45:15;;;;;;;16.02;5.65;;;7.30;99.90;;;;;;4982797;28;20049;-82
2021/12/19 09:47:42;;;;;;;18.13;5.63;;;7.40;99.90;;;;;;4990000;28;20045;-82
2021/12/19 09:50:08;;;;;;;17.63;5.50;;;7.40;99.90;;;;;;4988394;28;20042;-82
2021/12/19 09:52:35;;;;;;;16.13;5.57;;;7.30;99.90;;;;;;4989899;28;20038;-82
2021/12/19 09:55:01;;;;;;;18.40;5.60;;;7.40;99.90;;;;;;4990191;28;20049;-82
2021/12/19 09:57:27;;;;;;;19.02;5.72;;;7.40;99.90;;;;;;4992754;28;20074;-82
2021/12/19 09:59:53;;;;;;;14.30;5.50;;;7.40;99.90;;;;;;5003774;28;20042;-82
2021/12/19 10:02:19;;;;;;;16.75;5.28;;;7.40;99.90;;;;;;4970579;28;20065;-82
2021/12/19 10:04:46;;;;;;;18.23;5.60;;;7.50;99.90;;;;;;4989184;28;20085;-82
2021/12/19 10:07:29;;;;;;;14.77;5.03;;;7.50;99.90;;;;;;5005408;28;20047;-82
2021/12/19 10:10:03;;;;;;;17.80;5.10;;;7.50;99.90;;;;;;5010457;28;20049;-81
2021/12/19 10:13:06;;;;;;;18.75;5.10;;;7.50;99.90;;;;;;5001154;28;20103;-82
2021/12/19 10:15:31;;;;;;;13.02;4.57;;;7.50;99.90;;;;;;5003688;28;20129;-82
2021/12/19 10:18:16;;;;;;;17.05;5.15;;;7.50;99.90;;;;;;5005049;28;20053;-82
2021/12/19 10:20:48;;;;;;;15.98;5.00;;;7.50;99.90;;;;;;5003109;28;20050;-82
2021/12/19 10:23:24;;;;;;;;;;;7.50;99.90;;;;;;5004987;28;20041;-82
2021/12/19 10:26:04;;;;;;;19.30;5.32;;;7.50;99.90;;;;;;5000577;28;20354;-82
2021/12/19 10:28:30;;;;;;;18.02;4.72;;;7.50;99.90;;;;;;5004984;28;20379;-82
2021/12/19 10:31:03;;;;;;;17.10;4.40;;;7.60;99.90;;;;;;5004590;28;20042;-82
2021/12/19 10:33:32;;;;;;;18.33;4.45;;;7.50;99.90;;;;;;5003074;28;20049;-82
2021/12/19 10:36:02;;;;;;;16.90;4.90;;;7.60;99.90;;;;;;4985258;28;20065;-82
2021/12/19 10:38:30;;;;;;;18.42;4.70;;;7.60;99.90;;;;;;4986992;28;20042;-82
2021/12/19 10:41:01;;;;;;;15.77;4.53;;;7.60;99.90;;;;;;4985553;28;20129;-82
2021/12/19 10:43:31;;;;;;;17.63;4.63;;;7.60;99.90;;;;;;4999103;28;20236;-83
2021/12/19 10:46:02;;;;;;;20.52;4.80;;;7.60;99.90;;;;;;4987991;28;20042;-81
2021/12/19 10:48:38;;;;;;;15.10;4.13;;;7.50;99.90;;;;;;4982126;28;20049;-81
2021/12/19 10:51:07;;;;;;;17.42;4.45;;;7.50;99.90;;;;;;5005042;28;20116;-81
2021/12/19 10:53:44;;;;;;;13.32;4.35;;;7.60;99.90;;;;;;5002701;28;20512;-81
2021/12/19 10:56:14;;;;;;;14.20;4.30;;;7.60;99.90;;;;;;5002145;28;20046;-81
2021/12/19 10:58:47;;;;;;;19.17;4.65;;;7.50;99.90;;;;;;4999964;28;20052;-81
2021/12/19 11:01:31;;;;;;;14.80;4.05;;;7.50;99.90;;;;;;5002351;28;20096;-82
2021/12/19 11:04:04;;;;;;;13.43;3.85;;;7.60;99.90;;;;;;4994399;28;20049;-82
2021/12/19 11:06:45;;;;;;;12.27;3.80;;;7.60;99.90;;;;;;4956408;28;20062;-82
2021/12/19 11:09:11;;;;;;;16.30;3.75;;;7.60;99.90;;;;;;4972839;28;20043;-82
2021/12/19 11:11:50;;;;;;;15.55;3.30;;;7.60;99.90;;;;;;4957075;28;20391;-81
2021/12/19 11:14:18;;;;;;;15.77;3.22;;;7.60;99.90;;;;;;4973267;28;20043;-81
2021/12/19 11:16:44;;;;;;;15.13;3.33;;;7.60;99.90;;;;;;4973337;28;20129;-82
2021/12/19 11:19:11;;;;;;;18.00;3.42;;;7.70;99.90;;;;;;4972863;28;20511;-82
2021/12/19 11:21:37;;;;;;;14.38;3.20;;;7.70;99.90;;;;;;4973839;28;20125;-81
2021/12/19 11:24:06;;;;;;;15.30;3.67;;;7.70;99.90;;;;;;4958237;28;20174;-81
2021/12/19 11:26:32;;;;;;;14.60;3.25;;;7.70;99.90;;;;;;4972467;28;20043;-82
2021/12/19 11:28:59;;;;;;;13.10;2.97;;;7.70;99.90;;;;;;4958275;28;20403;-82
2021/12/19 11:31:31;;;;;;;15.70;2.97;;;7.70;99.90;;;;;;4957891;28;20058;-82
2021/12/19 11:34:16;;;;;;;13.93;3.10;;;7.70;99.90;;;;;;4974058;28;20043;-81
2021/12/19 11:36:46;;;;;;;14.48;2.92;;;7.80;99.90;;;;;;4956217;28;20051;-82
2021/12/19 11:39:14;;;;;;;14.82;2.97;;;7.80;99.90;;;;;;4973988;28;20050;-82
2021/12/19 11:42:01;;;;;;;11.52;2.60;;;7.70;99.90;;;;;;4971653;28;20047;-81
2021/12/19 11:44:32;;;;;;;14.93;2.83;;;7.80;99.90;;;;;;4988258;28;20126;-82
2021/12/19 11:47:04;;;;;;;12.00;3.00;;;7.80;99.90;;;;;;4971450;28;20039;-82
2021/12/19 11:49:30;;;;;;;13.47;2.67;;;7.80;99.90;;;;;;4973814;28;20046;-82
2021/12/19 11:52:30;;;;;;;13.80;2.90;;;7.70;99.90;;;;;;4957244;28;20337;-82
2021/12/19 11:55:14;;;;;;;13.63;3.15;;;7.80;99.90;;;;;;4950370;28;20593;-82
2021/12/19 11:57:41;;;;;;;14.68;2.90;;;7.80;99.90;;;;;;4989087;28;20046;-82
2021/12/19 12:00:50;;;;;;;14.48;2.65;;;7.80;99.90;;;;;;4973310;28;20223;-82
2021/12/19 12:03:16;;;;;;;13.98;2.88;;;7.80;99.90;;;;;;4917317;29;20521;-82
2021/12/19 12:05:44;;;;;;;11.57;2.80;;;7.80;99.90;;;;;;4951744;28;20082;-82
2021/12/19 12:08:17;;;;;;;13.20;3.00;;;7.80;99.90;;;;;;4979855;28;20440;-82
2021/12/19 12:10:52;;;;;;;16.42;3.40;;;7.80;99.90;;;;;;4979847;28;20403;-82
2021/12/19 12:13:39;;;;;;;13.55;3.20;;;7.90;99.90;;;;;;4979323;28;20077;-82
2021/12/19 12:16:20;;;;;;;15.57;3.20;;;7.80;99.90;;;;;;4980430;28;20176;-83
2021/12/19 12:18:57;;;;;;;14.57;3.28;;;7.90;99.90;;;;;;4980001;28;20437;-82
2021/12/19 12:21:31;;;;;;;17.10;3.42;;;7.90;99.90;;;;;;4979655;28;20046;-82
2021/12/19 12:24:04;;;;;;;19.65;3.25;;;7.90;99.90;;;;;;4977486;28;20049;-81
2021/12/19 12:26:49;;;;;;;20.73;3.60;;;7.90;99.90;;;;;;4976345;28;20487;-81
2021/12/19 12:29:15;;;;;;;18.10;3.38;;;7.90;99.90;;;;;;4984093;28;20414;-82
2021/12/19 12:31:46;;;;;;;16.70;3.38;;;7.90;99.90;;;;;;4982120;28;20046;-82
2021/12/19 12:34:15;;;;;;;17.40;3.38;;;7.90;99.90;;;;;;4981408;28;20136;-82
2021/12/19 12:36:42;;;;;;;18.15;3.03;;;7.90;99.90;;;;;;4975980;28;20046;-82
2021/12/19 12:39:26;;;;;;;18.77;3.08;;;7.90;99.90;;;;;;4983328;28;20438;-82
2021/12/19 12:42:00;;;;;;;16.48;3.13;;;7.90;99.90;;;;;;5009601;28;20406;-82
2021/12/19 12:44:27;;;;;;;15.38;3.38;;;7.90;99.90;;;;;;4996013;28;20045;-83
2021/12/19 12:46:54;;;;;;;15.38;3.55;;;7.90;99.90;;;;;;4975379;28;20039;-82
2021/12/19 12:49:25;;;;;;;18.35;3.60;;;7.90;99.90;;;;;;4980879;28;20031;-82
2021/12/19 12:51:57;;;;;;;19.33;3.65;;;7.90;99.90;;;;;;4978367;28;20054;-82
2021/12/19 12:54:30;;;;;;;23.25;3.97;;;7.90;99.90;;;;;;4983088;28;20082;-82
2021/12/19 12:56:58;;;;;;;18.60;3.90;;;7.90;99.90;;;;;;4976689;28;20046;-82
2021/12/19 12:59:30;;;;;;;18.40;3.85;;;7.90;99.90;;;;;;4973535;28;20070;-82
2021/12/19 13:04:33;;;;;;;18.83;3.88;;;7.90;99.90;;;;;;5013281;28;20498;-82
2021/12/19 13:07:03;;;;;;;17.67;3.92;;;7.90;99.90;;;;;;4977663;28;20046;-82
2021/12/19 13:09:31;;;;;;;21.55;3.97;;;7.90;99.90;;;;;;4993746;28;20118;-82
2021/12/19 13:12:16;;;;;;;19.13;3.70;;;7.90;99.90;;;;;;4985129;28;20047;-82
2021/12/19 13:14:49;;;;;;;19.88;3.70;;;7.90;99.90;;;;;;4983583;28;20053;-82
2021/12/19 13:17:20;;;;;;;25.88;3.90;;;7.90;99.90;;;;;;4973696;28;20042;-82
2021/12/19 13:19:53;;;;;;;16.92;3.80;;;7.90;99.90;;;;;;4997758;28;20046;-82
2021/12/19 13:22:20;;;;;;;16.83;3.60;;;7.90;99.90;;;;;;4978518;28;20043;-82
2021/12/19 13:24:49;;;;;;;26.05;4.20;;;7.80;99.90;;;;;;4992431;28;20078;-82
2021/12/19 13:27:19;;;;;;;19.92;3.70;;;7.90;99.90;;;;;;4989835;28;20066;-82
2021/12/19 13:30:07;;;;;;;22.95;4.10;;;7.80;99.90;;;;;;4982814;28;20060;-82
2021/12/19 13:32:35;;;;;;;21.20;3.78;;;7.90;99.90;;;;;;4973964;28;20049;-82
2021/12/19 13:35:05;;;;;;;24.33;3.70;;;7.90;99.90;;;;;;4969602;28;20045;-82
2021/12/19 13:37:33;;;;;;;19.33;3.85;;;7.90;99.90;;;;;;4986657;28;20069;-82
2021/12/19 13:40:10;;;;;;;21.50;3.88;;;7.80;99.90;;;;;;4982325;28;20046;-82
2021/12/19 13:42:45;;;;;;;25.58;4.28;;;7.80;99.90;;;;;;4996277;28;20532;-83
2021/12/19 13:45:31;;;;;;;22.05;3.72;;;7.80;99.90;;;;;;4993681;28;20136;-82
2021/12/19 13:48:02;;;;;;;21.05;3.88;;;7.80;99.90;;;;;;4990659;28;20062;-81
2021/12/19 13:50:31;;;;;;;19.50;3.70;;;7.80;99.90;;;;;;4982942;28;20049;-82
2021/12/19 13:52:57;;;;;;;20.50;3.97;;;7.80;99.90;;;;;;4986730;28;20076;-82
2021/12/19 13:55:23;;;;;;;20.48;3.83;;;7.80;99.90;;;;;;4987082;28;20088;-82
2021/12/19 13:58:04;;;;;;;24.00;3.60;;;7.80;99.90;;;;;;4983142;28;20042;-82
2021/12/19 14:00:42;;;;;;;22.17;3.97;;;7.90;99.90;;;;;;5007563;28;20067;-82
2021/12/19 14:03:08;;;;;;;27.95;4.18;;;7.90;99.90;;;;;;4998764;28;20049;-81
2021/12/19 14:05:36;;;;;;;23.63;3.85;;;7.90;99.90;;;;;;4981032;28;20410;-81